sensor_id;sensor_type;location;lat;lon;timestamp;pressure;altitude;pressure_sealevel;temperature;humidity
34243;BME280;20504;43.214;27.920;2023-01-25T00:01:59;102223.81;;;5.23;100.00
34243;BME280;20504;43.214;27.920;2023-01-25T00:04:25;102189.59;;;5.24;100.00
34243;BME280;20504;43.214;27.920;2023-01-25T00:06:51;102179.38;;;5.04;100.00
34243;BME280;20504;43.214;27.920;2023-01-25T00:09:17;102210.69;;;5.20;100.00
34243;BME280;20504;43.214;27.920;2023-01-25T00:11:43;102232.78;;;5.09;100.00
34243;BME280;20504;43.214;27.920;2023-01-25T00:14:13;102204.63;;;5.14;100.00
34243;BME280;20504;43.214;27.920;2023-01-25T00:16:39;102197.56;;;5.18;100.00
34243;BME280;20504;43.214;27.920;2023-01-25T00:19:05;102181.00;;;5.13;100.00
34243;BME280;20504;43.214;27.920;2023-01-25T00:21:31;102183.53;;;5.17;100.00
34243;BME280;20504;43.214;27.920;2023-01-25T00:23:58;102173.84;;;5.23;100.00
34243;BME280;20504;43.214;27.920;2023-01-25T00:26:23;102190.47;;;5.25;100.00
34243;BME280;20504;43.214;27.920;2023-01-25T00:28:53;102188.63;;;5.30;100.00
34243;BME280;20504;43.214;27.920;2023-01-25T00:33:59;102208.78;;;5.29;100.00
34243;BME280;20504;43.214;27.920;2023-01-25T00:38:59;102217.63;;;5.25;100.00
34243;BME280;20504;43.214;27.920;2023-01-25T00:41:24;102206.16;;;5.29;100.00
34243;BME280;20504;43.214;27.920;2023-01-25T00:43:50;102232.41;;;5.34;100.00
34243;BME280;20504;43.214;27.920;2023-01-25T00:46:16;102326.75;;;4.97;100.00
34243;BME280;20504;43.214;27.920;2023-01-25T00:48:42;102305.63;;;5.01;100.00
34243;BME280;20504;43.214;27.920;2023-01-25T00:51:08;102352.22;;;4.92;100.00
34243;BME280;20504;43.214;27.920;2023-01-25T00:53:33;102365.31;;;4.96;100.00
34243;BME280;20504;43.214;27.920;2023-01-25T00:55:59;102368.78;;;5.00;100.00
34243;BME280;20504;43.214;27.920;2023-01-25T00:58:25;102355.56;;;5.06;100.00
34243;BME280;20504;43.214;27.920;2023-01-25T01:00:52;102348.56;;;5.06;100.00
34243;BME280;20504;43.214;27.920;2023-01-25T01:03:18;102390.59;;;5.09;100.00
34243;BME280;20504;43.214;27.920;2023-01-25T01:05:43;102404.63;;;5.08;100.00
34243;BME280;20504;43.214;27.920;2023-01-25T01:08:09;102396.66;;;5.14;100.00
34243;BME280;20504;43.214;27.920;2023-01-25T01:10:35;102432.69;;;5.08;100.00
34243;BME280;20504;43.214;27.920;2023-01-25T01:13:00;102482.94;;;4.80;100.00
34243;BME280;20504;43.214;27.920;2023-01-25T01:15:26;102493.44;;;4.82;100.00
34243;BME280;20504;43.214;27.920;2023-01-25T01:17:51;102503.09;;;4.80;100.00
34243;BME280;20504;43.214;27.920;2023-01-25T01:20:17;102502.19;;;4.85;100.00
34243;BME280;20504;43.214;27.920;2023-01-25T01:22:42;102494.28;;;4.89;100.00
34243;BME280;20504;43.214;27.920;2023-01-25T01:25:08;102485.44;;;4.94;100.00
34243;BME280;20504;43.214;27.920;2023-01-25T01:27:34;102488.91;;;4.96;100.00
34243;BME280;20504;43.214;27.920;2023-01-25T01:30:00;102480.16;;;4.97;100.00
34243;BME280;20504;43.214;27.920;2023-01-25T01:32:25;102483.63;;;4.99;100.00
34243;BME280;20504;43.214;27.920;2023-01-25T01:34:51;102501.19;;;4.97;100.00
34243;BME280;20504;43.214;27.920;2023-01-25T01:37:16;102479.19;;;5.07;100.00
34243;BME280;20504;43.214;27.920;2023-01-25T01:39:42;102495.88;;;5.00;100.00
34243;BME280;20504;43.214;27.920;2023-01-25T01:42:07;102480.91;;;5.08;100.00
34243;BME280;20504;43.214;27.920;2023-01-25T01:44:52;102445.94;;;4.99;100.00
34243;BME280;20504;43.214;27.920;2023-01-25T01:47:38;102470.34;;;5.13;100.00
34243;BME280;20504;43.214;27.920;2023-01-25T01:50:17;102449.25;;;5.16;100.00
34243;BME280;20504;43.214;27.920;2023-01-25T01:52:44;102450.97;;;5.22;100.00
34243;BME280;20504;43.214;27.920;2023-01-25T01:55:14;102449.22;;;5.21;100.00
34243;BME280;20504;43.214;27.920;2023-01-25T01:57:51;102469.41;;;5.15;100.00
34243;BME280;20504;43.214;27.920;2023-01-25T02:00:30;102467.72;;;5.11;100.00
34243;BME280;20504;43.214;27.920;2023-01-25T02:02:57;102481.81;;;5.06;100.00
34243;BME280;20504;43.214;27.920;2023-01-25T02:05:28;102424.41;;;5.38;100.00
34243;BME280;20504;43.214;27.920;2023-01-25T02:07:56;102439.34;;;5.36;100.00
34243;BME280;20504;43.214;27.920;2023-01-25T02:10:23;102404.88;;;5.56;100.00
34243;BME280;20504;43.214;27.920;2023-01-25T02:12:50;102418.09;;;5.53;100.00
34243;BME280;20504;43.214;27.920;2023-01-25T02:15:17;102446.31;;;5.42;100.00
34243;BME280;20504;43.214;27.920;2023-01-25T02:17:42;102438.44;;;5.39;100.00
34243;BME280;20504;43.214;27.920;2023-01-25T02:25:13;102404.13;;;5.48;100.00
34243;BME280;20504;43.214;27.920;2023-01-25T02:27:48;102384.00;;;5.44;100.00
34243;BME280;20504;43.214;27.920;2023-01-25T02:30:15;102413.66;;;5.55;100.00
34243;BME280;20504;43.214;27.920;2023-01-25T02:32:40;102449.13;;;5.28;100.00
34243;BME280;20504;43.214;27.920;2023-01-25T02:35:06;102438.56;;;5.31;100.00
34243;BME280;20504;43.214;27.920;2023-01-25T02:37:32;102437.69;;;5.29;100.00
34243;BME280;20504;43.214;27.920;2023-01-25T02:39:58;102447.50;;;5.15;100.00
34243;BME280;20504;43.214;27.920;2023-01-25T02:42:23;102402.63;;;5.29;100.00
34243;BME280;20504;43.214;27.920;2023-01-25T02:44:49;102407.78;;;5.36;100.00
34243;BME280;20504;43.214;27.920;2023-01-25T02:47:15;102391.94;;;5.42;100.00
34243;BME280;20504;43.214;27.920;2023-01-25T02:49:41;102441.50;;;5.05;100.00
34243;BME280;20504;43.214;27.920;2023-01-25T02:52:06;102430.81;;;5.17;100.00
34243;BME280;20504;43.214;27.920;2023-01-25T02:54:32;102428.25;;;5.11;100.00
34243;BME280;20504;43.214;27.920;2023-01-25T02:56:57;102449.44;;;4.99;100.00
34243;BME280;20504;43.214;27.920;2023-01-25T02:59:23;102455.69;;;4.89;100.00
34243;BME280;20504;43.214;27.920;2023-01-25T03:01:48;102420.53;;;4.96;100.00
34243;BME280;20504;43.214;27.920;2023-01-25T03:04:14;102407.31;;;5.05;100.00
34243;BME280;20504;43.214;27.920;2023-01-25T03:06:40;102404.63;;;5.08;100.00
34243;BME280;20504;43.214;27.920;2023-01-25T03:09:08;102421.44;;;4.94;100.00
34243;BME280;20504;43.214;27.920;2023-01-25T03:11:34;102389.81;;;5.00;100.00
34243;BME280;20504;43.214;27.920;2023-01-25T03:14:00;102388.94;;;5.02;100.00
34243;BME280;20504;43.214;27.920;2023-01-25T03:16:26;102373.97;;;5.06;100.00
34243;BME280;20504;43.214;27.920;2023-01-25T03:18:52;102359.78;;;5.17;100.00
34243;BME280;20504;43.214;27.920;2023-01-25T03:21:20;102365.13;;;5.11;100.00
34243;BME280;20504;43.214;27.920;2023-01-25T03:23:47;102379.28;;;5.00;100.00
34243;BME280;20504;43.214;27.920;2023-01-25T03:26:19;102413.66;;;4.83;100.00
34243;BME280;20504;43.214;27.920;2023-01-25T03:28:45;102396.09;;;4.88;100.00
34243;BME280;20504;43.214;27.920;2023-01-25T03:31:12;102328.28;;;5.13;100.00
34243;BME280;20504;43.214;27.920;2023-01-25T03:33:39;102315.88;;;5.24;100.00
34243;BME280;20504;43.214;27.920;2023-01-25T03:36:05;102310.41;;;5.36;100.00
34243;BME280;20504;43.214;27.920;2023-01-25T03:38:31;102297.16;;;5.44;100.00
34243;BME280;20504;43.214;27.920;2023-01-25T03:40:57;102301.59;;;5.39;100.00
34243;BME280;20504;43.214;27.920;2023-01-25T03:43:23;102314.03;;;5.29;100.00
34243;BME280;20504;43.214;27.920;2023-01-25T03:45:53;102299.03;;;5.36;100.00
34243;BME280;20504;43.214;27.920;2023-01-25T03:48:19;102288.53;;;5.33;100.00
34243;BME280;20504;43.214;27.920;2023-01-25T03:50:53;102305.38;;;5.23;100.00
34243;BME280;20504;43.214;27.920;2023-01-25T03:53:23;102333.69;;;5.01;100.00
34243;BME280;20504;43.214;27.920;2023-01-25T03:56:08;102290.53;;;5.17;100.00
34243;BME280;20504;43.214;27.920;2023-01-25T03:58:38;102301.22;;;5.06;100.00
34243;BME280;20504;43.214;27.920;2023-01-25T04:01:05;102295.94;;;5.08;100.00
34243;BME280;20504;43.214;27.920;2023-01-25T04:03:32;102277.50;;;5.08;100.00
34243;BME280;20504;43.214;27.920;2023-01-25T04:05:58;102217.59;;;5.28;100.00
34243;BME280;20504;43.214;27.920;2023-01-25T04:08:24;102232.66;;;5.15;100.00
34243;BME280;20504;43.214;27.920;2023-01-25T04:10:54;102240.50;;;5.20;100.00
34243;BME280;20504;43.214;27.920;2023-01-25T04:13:21;102263.41;;;5.12;100.00
34243;BME280;20504;43.214;27.920;2023-01-25T04:15:47;102239.91;;;5.00;100.00
34243;BME280;20504;43.214;27.920;2023-01-25T04:18:13;102256.50;;;5.06;100.00
34243;BME280;20504;43.214;27.920;2023-01-25T04:20:39;102253.06;;;5.00;100.00
34243;BME280;20504;43.214;27.920;2023-01-25T04:23:05;102225.06;;;4.97;100.00
34243;BME280;20504;43.214;27.920;2023-01-25T04:25:31;102224.09;;;5.04;100.00
34243;BME280;20504;43.214;27.920;2023-01-25T04:27:57;102195.06;;;5.10;100.00
34243;BME280;20504;43.214;27.920;2023-01-25T04:30:22;102180.09;;;5.14;100.00
34243;BME280;20504;43.214;27.920;2023-01-25T04:32:48;102162.56;;;5.13;100.00
34243;BME280;20504;43.214;27.920;2023-01-25T04:35:13;102126.44;;;5.24;100.00
34243;BME280;20504;43.214;27.920;2023-01-25T04:37:39;102119.75;;;5.05;100.00
34243;BME280;20504;43.214;27.920;2023-01-25T04:40:05;102131.91;;;5.12;100.00
34243;BME280;20504;43.214;27.920;2023-01-25T04:42:30;102120.63;;;5.05;100.00
34243;BME280;20504;43.214;27.920;2023-01-25T04:44:56;102074.81;;;5.17;100.00
34243;BME280;20504;43.214;27.920;2023-01-25T04:47:21;102013.91;;;5.38;100.00
34243;BME280;20504;43.214;27.920;2023-01-25T04:49:47;101976.78;;;5.54;100.00
34243;BME280;20504;43.214;27.920;2023-01-25T04:52:12;101931.66;;;5.70;100.00
34243;BME280;20504;43.214;27.920;2023-01-25T04:54:38;101957.09;;;5.71;100.00
34243;BME280;20504;43.214;27.920;2023-01-25T04:57:03;101922.38;;;5.96;100.00
34243;BME280;20504;43.214;27.920;2023-01-25T04:59:28;101955.00;;;5.87;100.00
34243;BME280;20504;43.214;27.920;2023-01-25T05:01:54;102002.91;;;5.63;100.00
34243;BME280;20504;43.214;27.920;2023-01-25T05:04:19;102010.72;;;5.67;100.00
34243;BME280;20504;43.214;27.920;2023-01-25T05:06:45;102032.00;;;5.55;100.00
34243;BME280;20504;43.214;27.920;2023-01-25T05:09:10;102047.97;;;5.47;100.00
34243;BME280;20504;43.214;27.920;2023-01-25T05:11:36;102074.53;;;5.34;100.00
34243;BME280;20504;43.214;27.920;2023-01-25T05:14:01;102063.38;;;5.21;100.00
34243;BME280;20504;43.214;27.920;2023-01-25T05:16:27;102070.34;;;5.24;100.00
34243;BME280;20504;43.214;27.920;2023-01-25T05:18:55;102061.69;;;5.15;100.00
34243;BME280;20504;43.214;27.920;2023-01-25T05:21:21;102016.28;;;5.06;100.00
34243;BME280;20504;43.214;27.920;2023-01-25T05:24:05;102017.78;;;5.21;100.00
34243;BME280;20504;43.214;27.920;2023-01-25T05:26:30;102054.03;;;5.02;100.00
34243;BME280;20504;43.214;27.920;2023-01-25T05:29:14;102058.81;;;4.78;100.00
34243;BME280;20504;43.214;27.920;2023-01-25T05:31:40;101990.81;;;5.09;100.00
34243;BME280;20504;43.214;27.920;2023-01-25T05:34:05;101980.28;;;5.09;100.00
34243;BME280;20504;43.214;27.920;2023-01-25T05:36:31;101944.22;;;5.14;100.00
34243;BME280;20504;43.214;27.920;2023-01-25T05:38:56;101958.97;;;5.25;100.00
34243;BME280;20504;43.214;27.920;2023-01-25T05:41:21;102038.03;;;4.63;100.00
34243;BME280;20504;43.214;27.920;2023-01-25T05:43:47;102021.50;;;4.56;100.00
34243;BME280;20504;43.214;27.920;2023-01-25T05:46:13;102020.00;;;4.40;100.00
34243;BME280;20504;43.214;27.920;2023-01-25T05:48:39;101963.78;;;4.52;100.00
34243;BME280;20504;43.214;27.920;2023-01-25T05:51:04;101955.97;;;4.47;100.00
34243;BME280;20504;43.214;27.920;2023-01-25T05:53:30;101945.53;;;4.43;100.00
34243;BME280;20504;43.214;27.920;2023-01-25T05:55:55;101920.88;;;4.51;100.00
34243;BME280;20504;43.214;27.920;2023-01-25T05:58:21;101886.53;;;4.61;100.00
34243;BME280;20504;43.214;27.920;2023-01-25T06:00:46;101837.41;;;4.66;100.00
34243;BME280;20504;43.214;27.920;2023-01-25T06:03:12;101822.50;;;4.65;100.00
34243;BME280;20504;43.214;27.920;2023-01-25T06:05:37;101809.34;;;4.66;100.00
34243;BME280;20504;43.214;27.920;2023-01-25T06:08:03;101821.81;;;4.55;100.00
34243;BME280;20504;43.214;27.920;2023-01-25T06:10:28;101830.06;;;4.35;100.00
34243;BME280;20504;43.214;27.920;2023-01-25T06:12:57;101741.66;;;4.34;100.00
34243;BME280;20504;43.214;27.920;2023-01-25T06:15:23;101764.19;;;4.47;100.00
34243;BME280;20504;43.214;27.920;2023-01-25T06:17:53;101762.91;;;4.22;100.00
34243;BME280;20504;43.214;27.920;2023-01-25T06:20:18;101740.91;;;4.28;100.00
34243;BME280;20504;43.214;27.920;2023-01-25T06:22:48;101727.91;;;4.20;100.00
34243;BME280;20504;43.214;27.920;2023-01-25T06:25:14;101681.38;;;4.26;100.00
34243;BME280;20504;43.214;27.920;2023-01-25T06:27:39;101652.34;;;4.34;100.00
34243;BME280;20504;43.214;27.920;2023-01-25T06:30:05;101620.00;;;4.32;100.00
34243;BME280;20504;43.214;27.920;2023-01-25T06:32:31;101580.28;;;4.46;100.00
34243;BME280;20504;43.214;27.920;2023-01-25T06:34:57;101560.38;;;4.36;100.00
34243;BME280;20504;43.214;27.920;2023-01-25T06:37:23;101534.63;;;4.51;100.00
34243;BME280;20504;43.214;27.920;2023-01-25T06:39:48;101533.00;;;4.47;100.00
34243;BME280;20504;43.214;27.920;2023-01-25T06:42:14;101497.75;;;4.56;100.00
34243;BME280;20504;43.214;27.920;2023-01-25T06:44:39;101498.81;;;4.49;100.00
34243;BME280;20504;43.214;27.920;2023-01-25T06:47:07;101470.72;;;4.51;100.00
34243;BME280;20504;43.214;27.920;2023-01-25T06:49:33;101422.31;;;4.60;100.00
34243;BME280;20504;43.214;27.920;2023-01-25T06:51:58;101411.56;;;4.70;100.00
34243;BME280;20504;43.214;27.920;2023-01-25T06:54:25;101418.78;;;4.61;100.00
34243;BME280;20504;43.214;27.920;2023-01-25T06:56:51;101415.81;;;4.40;100.00
34243;BME280;20504;43.214;27.920;2023-01-25T06:59:16;101407.97;;;4.39;100.00
34243;BME280;20504;43.214;27.920;2023-01-25T07:01:42;101408.25;;;4.26;100.00
34243;BME280;20504;43.214;27.920;2023-01-25T07:04:08;101357.25;;;4.01;100.00
34243;BME280;20504;43.214;27.920;2023-01-25T07:06:36;101337.69;;;4.14;100.00
34243;BME280;20504;43.214;27.920;2023-01-25T07:09:07;101292.78;;;4.23;100.00
34243;BME280;20504;43.214;27.920;2023-01-25T07:11:33;101247.09;;;4.31;100.00
34243;BME280;20504;43.214;27.920;2023-01-25T07:14:03;101211.03;;;4.37;100.00
34243;BME280;20504;43.214;27.920;2023-01-25T07:16:28;101145.72;;;4.54;100.00
34243;BME280;20504;43.214;27.920;2023-01-25T07:19:01;101120.97;;;4.62;100.00
34243;BME280;20504;43.214;27.920;2023-01-25T07:21:27;101124.16;;;4.43;100.00
34243;BME280;20504;43.214;27.920;2023-01-25T07:23:52;101102.59;;;4.62;100.00
34243;BME280;20504;43.214;27.920;2023-01-25T07:26:24;101093.13;;;4.56;100.00
34243;BME280;20504;43.214;27.920;2023-01-25T07:28:51;101060.22;;;4.72;100.00
34243;BME280;20504;43.214;27.920;2023-01-25T07:31:18;101054.88;;;4.75;100.00
34243;BME280;20504;43.214;27.920;2023-01-25T07:33:51;101050.38;;;4.79;100.00
34243;BME280;20504;43.214;27.920;2023-01-25T07:36:17;101046.84;;;4.80;100.00
34243;BME280;20504;43.214;27.920;2023-01-25T07:38:43;101026.22;;;4.94;100.00
34243;BME280;20504;43.214;27.920;2023-01-25T07:41:09;101079.72;;;4.65;100.00
34243;BME280;20504;43.214;27.920;2023-01-25T07:43:35;101102.59;;;4.62;100.00
34243;BME280;20504;43.214;27.920;2023-01-25T07:46:05;101040.63;;;4.82;100.00
34243;BME280;20504;43.214;27.920;2023-01-25T07:48:31;101054.22;;;4.95;100.00
34243;BME280;20504;43.214;27.920;2023-01-25T07:51:01;101058.38;;;5.02;100.00
34243;BME280;20504;43.214;27.920;2023-01-25T07:53:39;101047.19;;;4.96;100.00
34243;BME280;20504;43.214;27.920;2023-01-25T07:56:06;101063.31;;;5.11;100.00
34243;BME280;20504;43.214;27.920;2023-01-25T07:58:32;101092.47;;;5.05;100.00
34243;BME280;20504;43.214;27.920;2023-01-25T08:01:11;101103.53;;;5.15;100.00
34243;BME280;20504;43.214;27.920;2023-01-25T08:03:37;101121.50;;;5.02;100.00
34243;BME280;20504;43.214;27.920;2023-01-25T08:06:03;101142.38;;;5.07;100.00
34243;BME280;20504;43.214;27.920;2023-01-25T08:08:33;101165.53;;;5.22;100.00
34243;BME280;20504;43.214;27.920;2023-01-25T08:11:05;101223.97;;;5.04;100.00
34243;BME280;20504;43.214;27.920;2023-01-25T08:13:31;101179.41;;;5.27;100.00
34243;BME280;20504;43.214;27.920;2023-01-25T08:15:57;101225.19;;;5.22;100.00
34243;BME280;20504;43.214;27.920;2023-01-25T08:18:22;101207.91;;;5.41;100.00
34243;BME280;20504;43.214;27.920;2023-01-25T08:20:48;101252.34;;;5.22;100.00
34243;BME280;20504;43.214;27.920;2023-01-25T08:23:13;101202.72;;;5.38;100.00
34243;BME280;20504;43.214;27.920;2023-01-25T08:25:38;101272.13;;;5.34;100.00
34243;BME280;20504;43.214;27.920;2023-01-25T08:28:04;101260.88;;;5.57;100.00
34243;BME280;20504;43.214;27.920;2023-01-25T08:30:30;101279.34;;;5.55;100.00
34243;BME280;20504;43.214;27.920;2023-01-25T08:32:56;101171.41;;;6.33;100.00
34243;BME280;20504;43.214;27.920;2023-01-25T08:35:21;101220.91;;;6.23;100.00
34243;BME280;20504;43.214;27.920;2023-01-25T08:37:47;101303.00;;;6.11;100.00
34243;BME280;20504;43.214;27.920;2023-01-25T08:40:12;101373.34;;;5.80;100.00
34243;BME280;20504;43.214;27.920;2023-01-25T08:42:40;101349.31;;;6.18;100.00
34243;BME280;20504;43.214;27.920;2023-01-25T08:45:08;101347.97;;;6.31;100.00
34243;BME280;20504;43.214;27.920;2023-01-25T08:47:34;101393.28;;;6.16;100.00
34243;BME280;20504;43.214;27.920;2023-01-25T08:50:00;101391.03;;;6.30;100.00
34243;BME280;20504;43.214;27.920;2023-01-25T08:52:25;101375.50;;;6.48;100.00
34243;BME280;20504;43.214;27.920;2023-01-25T08:54:51;101383.66;;;6.66;100.00
34243;BME280;20504;43.214;27.920;2023-01-25T08:57:16;101401.81;;;6.49;100.00
34243;BME280;20504;43.214;27.920;2023-01-25T08:59:42;101425.78;;;6.68;100.00
34243;BME280;20504;43.214;27.920;2023-01-25T09:02:11;101485.22;;;6.52;100.00
34243;BME280;20504;43.214;27.920;2023-01-25T09:04:37;101525.06;;;6.41;100.00
34243;BME280;20504;43.214;27.920;2023-01-25T09:07:02;101503.66;;;6.52;100.00
34243;BME280;20504;43.214;27.920;2023-01-25T09:09:28;101543.31;;;6.47;100.00
34243;BME280;20504;43.214;27.920;2023-01-25T09:11:55;101508.88;;;6.53;100.00
34243;BME280;20504;43.214;27.920;2023-01-25T09:14:20;101565.50;;;6.40;100.00
34243;BME280;20504;43.214;27.920;2023-01-25T09:16:46;101528.81;;;6.62;100.00
34243;BME280;20504;43.214;27.920;2023-01-25T09:19:11;101565.84;;;6.57;100.00
34243;BME280;20504;43.214;27.920;2023-01-25T09:21:38;101393.09;;;7.22;100.00
34243;BME280;20504;43.214;27.920;2023-01-25T09:24:04;101393.91;;;7.24;100.00
34243;BME280;20504;43.214;27.920;2023-01-25T09:26:29;101335.25;;;7.63;100.00
34243;BME280;20504;43.214;27.920;2023-01-25T09:28:55;101413.41;;;7.43;100.00
34243;BME280;20504;43.214;27.920;2023-01-25T09:31:21;101455.19;;;7.32;100.00
34243;BME280;20504;43.214;27.920;2023-01-25T09:33:47;101464.56;;;7.64;100.00
34243;BME280;20504;43.214;27.920;2023-01-25T09:36:14;101483.69;;;7.47;100.00
34243;BME280;20504;43.214;27.920;2023-01-25T09:38:39;101566.50;;;7.43;100.00
34243;BME280;20504;43.214;27.920;2023-01-25T09:41:34;101523.22;;;7.72;100.00
34243;BME280;20504;43.214;27.920;2023-01-25T09:44:35;101583.88;;;7.50;100.00
34243;BME280;20504;43.214;27.920;2023-01-25T09:55:13;101556.50;;;8.01;100.00
34243;BME280;20504;43.214;27.920;2023-01-25T09:57:41;101580.97;;;7.83;100.00
34243;BME280;20504;43.214;27.920;2023-01-25T10:05:31;101731.53;;;7.28;100.00
34243;BME280;20504;43.214;27.920;2023-01-25T10:08:05;101737.03;;;7.21;100.00
34243;BME280;20504;43.214;27.920;2023-01-25T10:10:39;101673.41;;;7.56;100.00
34243;BME280;20504;43.214;27.920;2023-01-25T10:13:11;101691.59;;;7.39;100.00
34243;BME280;20504;43.214;27.920;2023-01-25T10:15:47;101695.63;;;7.23;100.00
34243;BME280;20504;43.214;27.920;2023-01-25T10:26:34;101651.66;;;7.75;100.00
34243;BME280;20504;43.214;27.920;2023-01-25T10:29:11;101594.63;;;8.17;100.00
34243;BME280;20504;43.214;27.920;2023-01-25T10:31:51;101714.41;;;7.40;100.00
34243;BME280;20504;43.214;27.920;2023-01-25T10:34:26;101619.84;;;8.03;100.00
34243;BME280;20504;43.214;27.920;2023-01-25T10:36:56;101583.19;;;8.17;100.00
34243;BME280;20504;43.214;27.920;2023-01-25T10:39:22;101675.00;;;7.87;100.00
34243;BME280;20504;43.214;27.920;2023-01-25T10:41:58;101651.63;;;8.01;100.00
34243;BME280;20504;43.214;27.920;2023-01-25T10:44:25;101715.97;;;7.74;100.00
34243;BME280;20504;43.214;27.920;2023-01-25T10:47:05;101712.63;;;7.69;100.00
34243;BME280;20504;43.214;27.920;2023-01-25T10:49:52;101728.81;;;7.58;100.00
34243;BME280;20504;43.214;27.920;2023-01-25T10:52:21;101715.66;;;7.56;100.00
34243;BME280;20504;43.214;27.920;2023-01-25T10:54:48;101721.03;;;7.53;100.00
34243;BME280;20504;43.214;27.920;2023-01-25T10:57:28;101750.13;;;7.24;100.00
34243;BME280;20504;43.214;27.920;2023-01-25T10:59:55;101742.16;;;7.27;100.00
34243;BME280;20504;43.214;27.920;2023-01-25T11:02:42;101698.69;;;7.37;100.00
34243;BME280;20504;43.214;27.920;2023-01-25T11:05:23;101689.06;;;7.36;100.00
34243;BME280;20504;43.214;27.920;2023-01-25T11:07:48;101699.06;;;7.25;100.00
34243;BME280;20504;43.214;27.920;2023-01-25T11:10:34;101656.19;;;7.46;100.00
34243;BME280;20504;43.214;27.920;2023-01-25T11:18:26;101645.59;;;7.20;100.00
34243;BME280;20504;43.214;27.920;2023-01-25T11:21:14;101608.38;;;7.29;100.00
34243;BME280;20504;43.214;27.920;2023-01-25T11:23:43;101639.09;;;7.04;100.00
34243;BME280;20504;43.214;27.920;2023-01-25T11:26:21;101639.41;;;6.94;100.00
34243;BME280;20504;43.214;27.920;2023-01-25T11:28:47;101602.09;;;7.05;100.00
34243;BME280;20504;43.214;27.920;2023-01-25T11:31:19;101585.06;;;7.15;100.00
34243;BME280;20504;43.214;27.920;2023-01-25T11:33:46;101624.00;;;6.53;100.00
34243;BME280;20504;43.214;27.920;2023-01-25T11:39:09;101594.50;;;6.68;100.00
34243;BME280;20504;43.214;27.920;2023-01-25T11:41:48;101574.97;;;6.75;100.00
34243;BME280;20504;43.214;27.920;2023-01-25T11:55:44;101449.44;;;6.71;100.00
34243;BME280;20504;43.214;27.920;2023-01-25T11:58:40;101479.22;;;6.47;100.00
34243;BME280;20504;43.214;27.920;2023-01-25T12:01:31;101411.97;;;6.61;100.00
34243;BME280;20504;43.214;27.920;2023-01-25T12:06:58;101408.47;;;6.34;100.00
34243;BME280;20504;43.214;27.920;2023-01-25T12:28:59;101218.28;;;6.23;100.00
34243;BME280;20504;43.214;27.920;2023-01-25T12:31:40;101200.81;;;6.21;100.00
34243;BME280;20504;43.214;27.920;2023-01-25T12:34:22;101210.72;;;6.14;100.00
34243;BME280;20504;43.214;27.920;2023-01-25T12:36:50;101203.19;;;6.03;100.00
34243;BME280;20504;43.214;27.920;2023-01-25T12:39:40;101172.81;;;6.18;100.00
34243;BME280;20504;43.214;27.920;2023-01-25T12:42:20;101150.16;;;6.13;100.00
34243;BME280;20504;43.214;27.920;2023-01-25T12:44:58;101154.38;;;6.18;100.00
34243;BME280;20504;43.214;27.920;2023-01-25T12:53:09;101083.59;;;6.32;100.00
34243;BME280;20504;43.214;27.920;2023-01-25T12:55:38;101114.50;;;6.04;100.00
34243;BME280;20504;43.214;27.920;2023-01-25T13:00:50;101086.00;;;6.38;100.00
34243;BME280;20504;43.214;27.920;2023-01-25T13:08:31;101093.66;;;6.45;100.00
34243;BME280;20504;43.214;27.920;2023-01-25T13:11:13;101068.25;;;6.65;100.00
34243;BME280;20504;43.214;27.920;2023-01-25T13:13:41;101061.03;;;6.71;100.00
34243;BME280;20504;43.214;27.920;2023-01-25T13:16:36;101031.69;;;7.00;100.00
34243;BME280;20504;43.214;27.920;2023-01-25T13:19:03;101056.59;;;6.93;100.00
34243;BME280;20504;43.214;27.920;2023-01-25T13:21:40;101060.50;;;7.05;100.00
34243;BME280;20504;43.214;27.920;2023-01-25T13:24:20;101107.44;;;6.96;100.00
34243;BME280;20504;43.214;27.920;2023-01-25T13:26:56;101091.84;;;7.12;100.00
34243;BME280;20504;43.214;27.920;2023-01-25T13:31:55;101128.13;;;7.07;100.00
34243;BME280;20504;43.214;27.920;2023-01-25T13:37:20;101152.81;;;7.05;100.00
34243;BME280;20504;43.214;27.920;2023-01-25T13:42:22;101145.47;;;7.13;100.00
34243;BME280;20504;43.214;27.920;2023-01-25T13:44:52;101181.16;;;6.99;100.00
34243;BME280;20504;43.214;27.920;2023-01-25T13:47:22;101140.94;;;7.16;100.00
34243;BME280;20504;43.214;27.920;2023-01-25T13:49:56;101174.16;;;6.98;100.00
34243;BME280;20504;43.214;27.920;2023-01-25T13:52:26;101155.22;;;7.11;100.00
34243;BME280;20504;43.214;27.920;2023-01-25T13:54:54;101149.03;;;7.12;100.00
34243;BME280;20504;43.214;27.920;2023-01-25T13:57:29;101140.19;;;7.13;100.00
34243;BME280;20504;43.214;27.920;2023-01-25T14:00:14;101157.75;;;7.14;100.00
34243;BME280;20504;43.214;27.920;2023-01-25T14:02:42;101165.72;;;7.12;100.00
34243;BME280;20504;43.214;27.920;2023-01-25T14:05:22;101212.25;;;6.91;100.00
34243;BME280;20504;43.214;27.920;2023-01-25T14:07:50;101204.16;;;6.96;100.00
34243;BME280;20504;43.214;27.920;2023-01-25T14:10:19;101238.34;;;6.76;100.00
34243;BME280;20504;43.214;27.920;2023-01-25T14:12:48;101202.97;;;6.81;100.00
34243;BME280;20504;43.214;27.920;2023-01-25T14:15:31;101171.19;;;6.84;100.00
34243;BME280;20504;43.214;27.920;2023-01-25T14:18:15;101196.56;;;6.65;100.00
34243;BME280;20504;43.214;27.920;2023-01-25T14:20:50;101177.41;;;6.60;100.00
34243;BME280;20504;43.214;27.920;2023-01-25T14:23:28;101172.09;;;6.61;100.00
34243;BME280;20504;43.214;27.920;2023-01-25T14:25:56;101136.50;;;6.73;100.00